sensor_id;sensor_type;location;lat;lon;timestamp;temperature;humidity
33368;DHT22;19724;51.114;13.906;2023-04-01T00:01:07;8.80;99.90
33368;DHT22;19724;51.114;13.906;2023-04-01T00:03:33;8.80;99.90
33368;DHT22;19724;51.114;13.906;2023-04-01T00:06:00;8.90;99.90
33368;DHT22;19724;51.114;13.906;2023-04-01T00:08:26;8.90;99.90
33368;DHT22;19724;51.114;13.906;2023-04-01T00:10:53;8.80;99.90
33368;DHT22;19724;51.114;13.906;2023-04-01T00:13:19;8.80;99.90
33368;DHT22;19724;51.114;13.906;2023-04-01T00:15:45;8.80;99.90
33368;DHT22;19724;51.114;13.906;2023-04-01T00:18:11;8.80;99.90
33368;DHT22;19724;51.114;13.906;2023-04-01T00:20:37;8.80;99.90
33368;DHT22;19724;51.114;13.906;2023-04-01T00:23:03;8.80;99.90
33368;DHT22;19724;51.114;13.906;2023-04-01T00:25:30;8.80;99.90
33368;DHT22;19724;51.114;13.906;2023-04-01T00:27:56;8.80;99.90
33368;DHT22;19724;51.114;13.906;2023-04-01T00:30:21;8.80;99.90
33368;DHT22;19724;51.114;13.906;2023-04-01T00:32:47;8.80;99.90
33368;DHT22;19724;51.114;13.906;2023-04-01T00:35:16;8.80;99.90
33368;DHT22;19724;51.114;13.906;2023-04-01T00:37:42;8.80;99.90
33368;DHT22;19724;51.114;13.906;2023-04-01T00:40:11;8.80;99.90
33368;DHT22;19724;51.114;13.906;2023-04-01T00:42:45;8.80;99.90
33368;DHT22;19724;51.114;13.906;2023-04-01T00:45:35;8.80;99.90
33368;DHT22;19724;51.114;13.906;2023-04-01T00:48:05;8.80;99.90
33368;DHT22;19724;51.114;13.906;2023-04-01T00:50:33;8.80;99.90
33368;DHT22;19724;51.114;13.906;2023-04-01T00:53:00;8.80;99.90
33368;DHT22;19724;51.114;13.906;2023-04-01T00:55:28;8.70;99.90
33368;DHT22;19724;51.114;13.906;2023-04-01T00:57:57;8.80;99.90
33368;DHT22;19724;51.114;13.906;2023-04-01T01:00:23;8.80;99.90
33368;DHT22;19724;51.114;13.906;2023-04-01T01:02:50;8.70;99.90
33368;DHT22;19724;51.114;13.906;2023-04-01T01:05:17;8.70;99.90
33368;DHT22;19724;51.114;13.906;2023-04-01T01:10:40;8.80;99.90
33368;DHT22;19724;51.114;13.906;2023-04-01T01:13:39;8.80;99.90
33368;DHT22;19724;51.114;13.906;2023-04-01T01:16:27;8.80;99.90
33368;DHT22;19724;51.114;13.906;2023-04-01T01:25:03;8.70;99.90
33368;DHT22;19724;51.114;13.906;2023-04-01T01:27:34;8.70;99.90
33368;DHT22;19724;51.114;13.906;2023-04-01T01:30:36;8.70;99.90
33368;DHT22;19724;51.114;13.906;2023-04-01T01:33:13;8.70;99.90
33368;DHT22;19724;51.114;13.906;2023-04-01T01:35:53;8.70;99.90
33368;DHT22;19724;51.114;13.906;2023-04-01T01:38:24;8.70;99.90
33368;DHT22;19724;51.114;13.906;2023-04-01T01:40:52;8.70;99.90
33368;DHT22;19724;51.114;13.906;2023-04-01T01:43:25;8.70;99.90
33368;DHT22;19724;51.114;13.906;2023-04-01T01:45:56;8.70;99.90
33368;DHT22;19724;51.114;13.906;2023-04-01T01:48:24;8.70;99.90
33368;DHT22;19724;51.114;13.906;2023-04-01T01:50:51;8.70;99.90
33368;DHT22;19724;51.114;13.906;2023-04-01T01:53:17;8.70;99.90
33368;DHT22;19724;51.114;13.906;2023-04-01T01:55:45;8.70;99.90
33368;DHT22;19724;51.114;13.906;2023-04-01T01:58:22;8.70;99.90
33368;DHT22;19724;51.114;13.906;2023-04-01T02:00:55;8.70;99.90
33368;DHT22;19724;51.114;13.906;2023-04-01T02:03:24;8.70;99.90
33368;DHT22;19724;51.114;13.906;2023-04-01T02:05:52;8.70;99.90
33368;DHT22;19724;51.114;13.906;2023-04-01T02:08:24;8.70;99.90
33368;DHT22;19724;51.114;13.906;2023-04-01T02:10:59;8.70;99.90
33368;DHT22;19724;51.114;13.906;2023-04-01T02:13:31;8.70;99.90
33368;DHT22;19724;51.114;13.906;2023-04-01T02:16:03;8.70;99.90
33368;DHT22;19724;51.114;13.906;2023-04-01T02:18:34;8.70;99.90
33368;DHT22;19724;51.114;13.906;2023-04-01T02:21:01;8.70;99.90
33368;DHT22;19724;51.114;13.906;2023-04-01T02:23:27;8.70;99.90
33368;DHT22;19724;51.114;13.906;2023-04-01T02:25:54;8.70;99.90
33368;DHT22;19724;51.114;13.906;2023-04-01T02:28:20;8.70;99.90
33368;DHT22;19724;51.114;13.906;2023-04-01T02:30:47;8.70;99.90
33368;DHT22;19724;51.114;13.906;2023-04-01T02:33:14;8.60;99.90
33368;DHT22;19724;51.114;13.906;2023-04-01T02:35:40;8.60;99.90
33368;DHT22;19724;51.114;13.906;2023-04-01T02:38:05;8.70;99.90
33368;DHT22;19724;51.114;13.906;2023-04-01T02:40:45;8.70;99.90
33368;DHT22;19724;51.114;13.906;2023-04-01T02:43:10;8.60;99.90
33368;DHT22;19724;51.114;13.906;2023-04-01T02:45:36;8.60;99.90
33368;DHT22;19724;51.114;13.906;2023-04-01T02:48:02;8.60;99.90
33368;DHT22;19724;51.114;13.906;2023-04-01T02:50:27;8.60;99.90
33368;DHT22;19724;51.114;13.906;2023-04-01T02:52:53;8.60;99.90
33368;DHT22;19724;51.114;13.906;2023-04-01T02:55:18;8.60;99.90
33368;DHT22;19724;51.114;13.906;2023-04-01T02:57:44;8.60;99.90
33368;DHT22;19724;51.114;13.906;2023-04-01T03:00:10;8.60;99.90
33368;DHT22;19724;51.114;13.906;2023-04-01T03:02:38;8.60;99.90
33368;DHT22;19724;51.114;13.906;2023-04-01T03:05:04;8.70;99.90
33368;DHT22;19724;51.114;13.906;2023-04-01T03:07:31;8.60;99.90
33368;DHT22;19724;51.114;13.906;2023-04-01T03:09:56;8.70;99.90
33368;DHT22;19724;51.114;13.906;2023-04-01T03:12:22;8.60;99.90
33368;DHT22;19724;51.114;13.906;2023-04-01T03:14:47;8.60;99.90
33368;DHT22;19724;51.114;13.906;2023-04-01T03:17:13;8.60;99.90
33368;DHT22;19724;51.114;13.906;2023-04-01T03:19:38;8.60;99.90
33368;DHT22;19724;51.114;13.906;2023-04-01T03:22:04;8.60;99.90
33368;DHT22;19724;51.114;13.906;2023-04-01T03:24:29;8.60;99.90
33368;DHT22;19724;51.114;13.906;2023-04-01T03:26:54;8.60;99.90
33368;DHT22;19724;51.114;13.906;2023-04-01T03:29:20;8.60;99.90
33368;DHT22;19724;51.114;13.906;2023-04-01T03:31:45;8.60;99.90
33368;DHT22;19724;51.114;13.906;2023-04-01T03:34:11;8.60;99.90
33368;DHT22;19724;51.114;13.906;2023-04-01T03:36:37;8.70;99.90
33368;DHT22;19724;51.114;13.906;2023-04-01T03:39:02;8.70;99.90
33368;DHT22;19724;51.114;13.906;2023-04-01T03:41:28;8.70;99.90
33368;DHT22;19724;51.114;13.906;2023-04-01T03:43:54;8.70;99.90
33368;DHT22;19724;51.114;13.906;2023-04-01T03:46:20;8.70;99.90
33368;DHT22;19724;51.114;13.906;2023-04-01T03:48:46;8.70;99.90
33368;DHT22;19724;51.114;13.906;2023-04-01T03:51:12;8.70;99.90
33368;DHT22;19724;51.114;13.906;2023-04-01T03:53:37;8.70;99.90
33368;DHT22;19724;51.114;13.906;2023-04-01T03:56:07;8.70;99.90
33368;DHT22;19724;51.114;13.906;2023-04-01T03:58:33;8.70;99.90
33368;DHT22;19724;51.114;13.906;2023-04-01T04:00:58;8.60;99.90
33368;DHT22;19724;51.114;13.906;2023-04-01T04:03:24;8.70;99.90
33368;DHT22;19724;51.114;13.906;2023-04-01T04:05:50;8.70;99.90
33368;DHT22;19724;51.114;13.906;2023-04-01T04:08:16;8.60;99.90
33368;DHT22;19724;51.114;13.906;2023-04-01T04:10:41;8.70;99.90
33368;DHT22;19724;51.114;13.906;2023-04-01T04:13:07;8.70;99.90
33368;DHT22;19724;51.114;13.906;2023-04-01T04:15:32;8.70;99.90
33368;DHT22;19724;51.114;13.906;2023-04-01T04:17:58;8.70;99.90
33368;DHT22;19724;51.114;13.906;2023-04-01T04:20:25;8.60;99.90
33368;DHT22;19724;51.114;13.906;2023-04-01T04:22:50;8.70;99.90
33368;DHT22;19724;51.114;13.906;2023-04-01T04:25:16;8.70;99.90
33368;DHT22;19724;51.114;13.906;2023-04-01T04:27:41;8.70;99.90
33368;DHT22;19724;51.114;13.906;2023-04-01T04:30:08;8.70;99.90
33368;DHT22;19724;51.114;13.906;2023-04-01T04:32:33;8.70;99.90
33368;DHT22;19724;51.114;13.906;2023-04-01T04:34:59;8.60;99.90
33368;DHT22;19724;51.114;13.906;2023-04-01T04:37:25;8.70;99.90
33368;DHT22;19724;51.114;13.906;2023-04-01T04:39:52;8.60;99.90
33368;DHT22;19724;51.114;13.906;2023-04-01T04:42:17;8.60;99.90
33368;DHT22;19724;51.114;13.906;2023-04-01T04:44:43;8.60;99.90
33368;DHT22;19724;51.114;13.906;2023-04-01T04:47:08;8.70;99.90
33368;DHT22;19724;51.114;13.906;2023-04-01T04:49:34;8.60;99.90
33368;DHT22;19724;51.114;13.906;2023-04-01T04:51:59;8.70;99.90
33368;DHT22;19724;51.114;13.906;2023-04-01T04:54:25;8.70;99.90
33368;DHT22;19724;51.114;13.906;2023-04-01T04:56:52;8.70;99.90
33368;DHT22;19724;51.114;13.906;2023-04-01T04:59:18;8.60;99.90
33368;DHT22;19724;51.114;13.906;2023-04-01T05:01:43;8.70;99.90
33368;DHT22;19724;51.114;13.906;2023-04-01T05:04:08;8.70;99.90
33368;DHT22;19724;51.114;13.906;2023-04-01T05:06:34;8.70;99.90
33368;DHT22;19724;51.114;13.906;2023-04-01T05:09:00;8.70;99.90
33368;DHT22;19724;51.114;13.906;2023-04-01T05:11:25;8.70;99.90
33368;DHT22;19724;51.114;13.906;2023-04-01T05:13:51;8.70;99.90
33368;DHT22;19724;51.114;13.906;2023-04-01T05:16:19;8.70;99.90
33368;DHT22;19724;51.114;13.906;2023-04-01T05:18:46;8.70;99.90
33368;DHT22;19724;51.114;13.906;2023-04-01T05:21:13;8.70;99.90
33368;DHT22;19724;51.114;13.906;2023-04-01T05:23:40;8.70;99.90
33368;DHT22;19724;51.114;13.906;2023-04-01T05:26:07;8.70;99.90
33368;DHT22;19724;51.114;13.906;2023-04-01T05:28:33;8.70;99.90
33368;DHT22;19724;51.114;13.906;2023-04-01T05:31:00;8.70;99.90
33368;DHT22;19724;51.114;13.906;2023-04-01T05:33:26;8.70;99.90
33368;DHT22;19724;51.114;13.906;2023-04-01T05:35:52;8.70;99.90
33368;DHT22;19724;51.114;13.906;2023-04-01T05:38:18;8.70;99.90
33368;DHT22;19724;51.114;13.906;2023-04-01T05:40:43;8.70;99.90
33368;DHT22;19724;51.114;13.906;2023-04-01T05:43:09;8.80;99.90
33368;DHT22;19724;51.114;13.906;2023-04-01T05:45:34;8.80;99.90
33368;DHT22;19724;51.114;13.906;2023-04-01T05:48:00;8.80;99.90
33368;DHT22;19724;51.114;13.906;2023-04-01T05:50:25;8.90;99.90
33368;DHT22;19724;51.114;13.906;2023-04-01T05:52:51;8.90;99.90
33368;DHT22;19724;51.114;13.906;2023-04-01T05:55:16;8.90;99.90
33368;DHT22;19724;51.114;13.906;2023-04-01T05:57:42;8.90;99.90
33368;DHT22;19724;51.114;13.906;2023-04-01T06:00:10;8.90;99.90
33368;DHT22;19724;51.114;13.906;2023-04-01T06:02:35;8.90;99.90
33368;DHT22;19724;51.114;13.906;2023-04-01T06:05:14;9.00;99.90
33368;DHT22;19724;51.114;13.906;2023-04-01T06:07:40;9.00;99.90
33368;DHT22;19724;51.114;13.906;2023-04-01T06:10:13;9.00;99.90
33368;DHT22;19724;51.114;13.906;2023-04-01T06:13:06;9.10;99.90
33368;DHT22;19724;51.114;13.906;2023-04-01T06:15:40;9.10;99.90
33368;DHT22;19724;51.114;13.906;2023-04-01T06:21:43;9.10;99.90
33368;DHT22;19724;51.114;13.906;2023-04-01T06:35:35;9.20;99.90
33368;DHT22;19724;51.114;13.906;2023-04-01T06:43:47;9.20;99.90
33368;DHT22;19724;51.114;13.906;2023-04-01T06:52:30;9.40;99.90
33368;DHT22;19724;51.114;13.906;2023-04-01T06:55:17;9.40;99.90
33368;DHT22;19724;51.114;13.906;2023-04-01T06:57:51;9.40;99.90
33368;DHT22;19724;51.114;13.906;2023-04-01T07:00:30;9.40;99.90
33368;DHT22;19724;51.114;13.906;2023-04-01T07:03:06;9.40;99.90
33368;DHT22;19724;51.114;13.906;2023-04-01T07:05:36;9.50;99.90
33368;DHT22;19724;51.114;13.906;2023-04-01T07:08:05;9.50;99.90
33368;DHT22;19724;51.114;13.906;2023-04-01T07:10:50;9.60;99.90
33368;DHT22;19724;51.114;13.906;2023-04-01T07:13:29;9.60;99.90
33368;DHT22;19724;51.114;13.906;2023-04-01T07:16:21;9.70;99.90
33368;DHT22;19724;51.114;13.906;2023-04-01T07:19:06;9.80;99.90
33368;DHT22;19724;51.114;13.906;2023-04-01T07:21:45;9.80;99.90
33368;DHT22;19724;51.114;13.906;2023-04-01T07:24:49;9.80;99.90
33368;DHT22;19724;51.114;13.906;2023-04-01T07:27:13;9.80;99.90
33368;DHT22;19724;51.114;13.906;2023-04-01T07:29:38;9.80;99.90
33368;DHT22;19724;51.114;13.906;2023-04-01T07:40:43;10.00;99.90
33368;DHT22;19724;51.114;13.906;2023-04-01T07:43:17;10.00;99.90
33368;DHT22;19724;51.114;13.906;2023-04-01T07:49:04;10.00;99.90
33368;DHT22;19724;51.114;13.906;2023-04-01T07:55:06;10.00;99.90
33368;DHT22;19724;51.114;13.906;2023-04-01T07:57:57;10.10;99.90
33368;DHT22;19724;51.114;13.906;2023-04-01T08:00:33;10.10;99.90
33368;DHT22;19724;51.114;13.906;2023-04-01T08:09:10;10.20;99.90
33368;DHT22;19724;51.114;13.906;2023-04-01T08:14:56;10.30;99.90
33368;DHT22;19724;51.114;13.906;2023-04-01T08:17:58;10.40;99.90
33368;DHT22;19724;51.114;13.906;2023-04-01T08:23:19;10.50;99.90
33368;DHT22;19724;51.114;13.906;2023-04-01T08:28:41;10.70;99.90
33368;DHT22;19724;51.114;13.906;2023-04-01T08:31:18;10.90;99.90
33368;DHT22;19724;51.114;13.906;2023-04-01T08:33:47;11.00;99.90
33368;DHT22;19724;51.114;13.906;2023-04-01T08:36:31;11.10;99.90
33368;DHT22;19724;51.114;13.906;2023-04-01T08:41:42;11.20;99.90
33368;DHT22;19724;51.114;13.906;2023-04-01T08:44:20;11.30;99.90
33368;DHT22;19724;51.114;13.906;2023-04-01T08:52:53;11.60;99.90
33368;DHT22;19724;51.114;13.906;2023-04-01T08:55:51;11.60;99.90
33368;DHT22;19724;51.114;13.906;2023-04-01T09:01:26;11.50;99.90
33368;DHT22;19724;51.114;13.906;2023-04-01T09:14:58;11.40;99.90
33368;DHT22;19724;51.114;13.906;2023-04-01T09:17:39;11.40;99.90
33368;DHT22;19724;51.114;13.906;2023-04-01T09:28:19;11.30;99.90
33368;DHT22;19724;51.114;13.906;2023-04-01T09:31:10;11.40;99.90
33368;DHT22;19724;51.114;13.906;2023-04-01T09:34:06;11.30;99.90
33368;DHT22;19724;51.114;13.906;2023-04-01T09:36:43;11.40;99.90
33368;DHT22;19724;51.114;13.906;2023-04-01T09:39:34;11.40;99.90
33368;DHT22;19724;51.114;13.906;2023-04-01T09:42:15;11.30;99.90
33368;DHT22;19724;51.114;13.906;2023-04-01T09:45:52;11.30;99.90
33368;DHT22;19724;51.114;13.906;2023-04-01T09:53:26;11.10;99.90
33368;DHT22;19724;51.114;13.906;2023-04-01T10:04:52;11.20;99.90
33368;DHT22;19724;51.114;13.906;2023-04-01T10:07:54;11.20;99.90
33368;DHT22;19724;51.114;13.906;2023-04-01T10:13:43;11.30;99.90
33368;DHT22;19724;51.114;13.906;2023-04-01T10:27:42;11.30;99.90
33368;DHT22;19724;51.114;13.906;2023-04-01T10:38:44;11.30;99.90
33368;DHT22;19724;51.114;13.906;2023-04-01T11:09:57;11.00;99.90
33368;DHT22;19724;51.114;13.906;2023-04-01T11:12:45;11.10;99.90
33368;DHT22;19724;51.114;13.906;2023-04-01T11:15:47;11.10;99.90
33368;DHT22;19724;51.114;13.906;2023-04-01T11:27:01;10.90;99.90
33368;DHT22;19724;51.114;13.906;2023-04-01T11:35:39;10.70;99.90
33368;DHT22;19724;51.114;13.906;2023-04-01T11:47:00;11.90;99.90
33368;DHT22;19724;51.114;13.906;2023-04-01T11:52:04;12.40;99.90
33368;DHT22;19724;51.114;13.906;2023-04-01T12:03:24;12.80;99.90
33368;DHT22;19724;51.114;13.906;2023-04-01T12:06:18;12.70;99.90
33368;DHT22;19724;51.114;13.906;2023-04-01T12:09:07;12.60;99.90
33368;DHT22;19724;51.114;13.906;2023-04-01T12:11:45;12.60;99.90
33368;DHT22;19724;51.114;13.906;2023-04-01T12:14:30;12.90;99.90
33368;DHT22;19724;51.114;13.906;2023-04-01T12:23:28;13.20;99.90
33368;DHT22;19724;51.114;13.906;2023-04-01T12:26:25;13.70;99.90
33368;DHT22;19724;51.114;13.906;2023-04-01T12:29:16;14.10;99.90
33368;DHT22;19724;51.114;13.906;2023-04-01T12:31:52;14.20;99.90
33368;DHT22;19724;51.114;13.906;2023-04-01T12:34:44;14.30;99.90
33368;DHT22;19724;51.114;13.906;2023-04-01T12:43:24;14.00;99.90
33368;DHT22;19724;51.114;13.906;2023-04-01T12:46:05;13.80;99.90
33368;DHT22;19724;51.114;13.906;2023-04-01T12:56:49;13.50;99.90
33368;DHT22;19724;51.114;13.906;2023-04-01T13:08:21;13.30;99.90
33368;DHT22;19724;51.114;13.906;2023-04-01T13:13:52;13.30;99.90
33368;DHT22;19724;51.114;13.906;2023-04-01T13:16:28;13.30;99.90
33368;DHT22;19724;51.114;13.906;2023-04-01T13:19:00;13.30;99.90
33368;DHT22;19724;51.114;13.906;2023-04-01T13:24:33;13.50;99.90
33368;DHT22;19724;51.114;13.906;2023-04-01T13:29:43;13.90;99.90
33368;DHT22;19724;51.114;13.906;2023-04-01T13:37:52;14.40;99.90
33368;DHT22;19724;51.114;13.906;2023-04-01T13:42:59;14.20;99.90
33368;DHT22;19724;51.114;13.906;2023-04-01T13:45:35;14.10;99.90
33368;DHT22;19724;51.114;13.906;2023-04-01T13:48:27;14.00;99.90
33368;DHT22;19724;51.114;13.906;2023-04-01T13:59:36;13.90;99.90
33368;DHT22;19724;51.114;13.906;2023-04-01T14:02:14;13.80;99.90
33368;DHT22;19724;51.114;13.906;2023-04-01T14:08:08;13.70;99.90
33368;DHT22;19724;51.114;13.906;2023-04-01T14:10:43;13.60;99.90
33368;DHT22;19724;51.114;13.906;2023-04-01T14:13:23;13.40;99.90
33368;DHT22;19724;51.114;13.906;2023-04-01T14:19:19;13.30;99.90
33368;DHT22;19724;51.114;13.906;2023-04-01T14:22:20;13.60;99.90
33368;DHT22;19724;51.114;13.906;2023-04-01T14:30:34;14.20;99.90
33368;DHT22;19724;51.114;13.906;2023-04-01T14:33:26;14.20;99.90
33368;DHT22;19724;51.114;13.906;2023-04-01T14:36:25;14.20;99.90
33368;DHT22;19724;51.114;13.906;2023-04-01T14:50:22;14.00;99.90
33368;DHT22;19724;51.114;13.906;2023-04-01T15:01:00;13.80;99.90
33368;DHT22;19724;51.114;13.906;2023-04-01T15:03:33;13.70;99.90
33368;DHT22;19724;51.114;13.906;2023-04-01T15:08:43;13.60;99.90
33368;DHT22;19724;51.114;13.906;2023-04-01T15:16:55;13.50;99.90
33368;DHT22;19724;51.114;13.906;2023-04-01T15:22:37;13.40;99.90
33368;DHT22;19724;51.114;13.906;2023-04-01T15:27:51;13.30;99.90
33368;DHT22;19724;51.114;13.906;2023-04-01T15:30:33;13.20;99.90
33368;DHT22;19724;51.114;13.906;2023-04-01T15:33:10;13.20;99.90
33368;DHT22;19724;51.114;13.906;2023-04-01T15:36:03;13.20;99.90
33368;DHT22;19724;51.114;13.906;2023-04-01T15:38:36;13.20;99.90
33368;DHT22;19724;51.114;13.906;2023-04-01T15:41:19;13.30;99.90
33368;DHT22;19724;51.114;13.906;2023-04-01T15:43:49;13.40;99.90
33368;DHT22;19724;51.114;13.906;2023-04-01T15:46:41;13.50;99.90
33368;DHT22;19724;51.114;13.906;2023-04-01T15:52:20;13.80;99.90
33368;DHT22;19724;51.114;13.906;2023-04-01T15:57:52;13.90;99.90
33368;DHT22;19724;51.114;13.906;2023-04-01T16:00:29;14.10;99.90
33368;DHT22;19724;51.114;13.906;2023-04-01T16:03:27;14.10;99.90
33368;DHT22;19724;51.114;13.906;2023-04-01T16:06:14;14.00;99.90
33368;DHT22;19724;51.114;13.906;2023-04-01T16:11:56;13.70;99.90
33368;DHT22;19724;51.114;13.906;2023-04-01T16:14:51;13.70;99.90
33368;DHT22;19724;51.114;13.906;2023-04-01T16:17:46;13.50;99.90
33368;DHT22;19724;51.114;13.906;2023-04-01T16:20:19;13.40;99.90
33368;DHT22;19724;51.114;13.906;2023-04-01T16:22:59;13.40;99.90
33368;DHT22;19724;51.114;13.906;2023-04-01T16:25:39;13.40;99.90
33368;DHT22;19724;51.114;13.906;2023-04-01T16:34:03;13.20;99.90
33368;DHT22;19724;51.114;13.906;2023-04-01T16:36:49;13.20;99.90
33368;DHT22;19724;51.114;13.906;2023-04-01T16:39:34;13.00;99.90
33368;DHT22;19724;51.114;13.906;2023-04-01T16:44:54;12.90;99.90
33368;DHT22;19724;51.114;13.906;2023-04-01T16:47:40;12.90;99.90
33368;DHT22;19724;51.114;13.906;2023-04-01T16:55:18;12.70;99.90
33368;DHT22;19724;51.114;13.906;2023-04-01T16:57:56;12.70;99.90
33368;DHT22;19724;51.114;13.906;2023-04-01T17:00:39;12.60;99.90
33368;DHT22;19724;51.114;13.906;2023-04-01T17:03:28;12.60;99.90
33368;DHT22;19724;51.114;13.906;2023-04-01T17:08:34;12.50;99.90
33368;DHT22;19724;51.114;13.906;2023-04-01T17:11:26;12.40;99.90
33368;DHT22;19724;51.114;13.906;2023-04-01T17:14:16;12.40;99.90
33368;DHT22;19724;51.114;13.906;2023-04-01T17:17:01;12.30;99.90
33368;DHT22;19724;51.114;13.906;2023-04-01T17:19:45;12.30;99.90
33368;DHT22;19724;51.114;13.906;2023-04-01T17:22:27;12.20;99.90
33368;DHT22;19724;51.114;13.906;2023-04-01T17:30:33;12.20;99.90
33368;DHT22;19724;51.114;13.906;2023-04-01T17:41:42;11.90;99.90
33368;DHT22;19724;51.114;13.906;2023-04-01T17:47:10;11.90;99.90
33368;DHT22;19724;51.114;13.906;2023-04-01T17:49:54;11.90;99.90
33368;DHT22;19724;51.114;13.906;2023-04-01T17:52:32;11.90;99.90
33368;DHT22;19724;51.114;13.906;2023-04-01T17:55:25;11.80;99.90
33368;DHT22;19724;51.114;13.906;2023-04-01T17:58:00;11.80;99.90
33368;DHT22;19724;51.114;13.906;2023-04-01T18:00:47;11.70;99.90
33368;DHT22;19724;51.114;13.906;2023-04-01T18:03:44;11.60;99.90
33368;DHT22;19724;51.114;13.906;2023-04-01T18:06:21;11.60;99.90
33368;DHT22;19724;51.114;13.906;2023-04-01T18:08:58;11.50;99.90
33368;DHT22;19724;51.114;13.906;2023-04-01T18:14:29;11.40;99.90
33368;DHT22;19724;51.114;13.906;2023-04-01T18:22:28;11.30;99.90
33368;DHT22;19724;51.114;13.906;2023-04-01T18:27:45;11.10;99.90
33368;DHT22;19724;51.114;13.906;2023-04-01T18:30:21;11.10;99.90
33368;DHT22;19724;51.114;13.906;2023-04-01T18:38:18;11.00;99.90
33368;DHT22;19724;51.114;13.906;2023-04-01T18:44:07;11.00;99.90
33368;DHT22;19724;51.114;13.906;2023-04-01T18:52:21;10.80;99.90
33368;DHT22;19724;51.114;13.906;2023-04-01T18:57:38;10.80;99.90
33368;DHT22;19724;51.114;13.906;2023-04-01T19:02:41;10.70;99.90
33368;DHT22;19724;51.114;13.906;2023-04-01T19:05:18;10.70;99.90
33368;DHT22;19724;51.114;13.906;2023-04-01T19:07:55;10.70;99.90
33368;DHT22;19724;51.114;13.906;2023-04-01T19:10:46;10.70;99.90
33368;DHT22;19724;51.114;13.906;2023-04-01T19:16:10;10.70;99.90
33368;DHT22;19724;51.114;13.906;2023-04-01T19:21:16;10.60;99.90
33368;DHT22;19724;51.114;13.906;2023-04-01T19:26:39;10.50;99.90
33368;DHT22;19724;51.114;13.906;2023-04-01T19:29:17;10.40;99.90
33368;DHT22;19724;51.114;13.906;2023-04-01T19:37:47;10.40;99.90
33368;DHT22;19724;51.114;13.906;2023-04-01T19:46:14;10.40;99.90
33368;DHT22;19724;51.114;13.906;2023-04-01T19:51:23;10.40;99.90
33368;DHT22;19724;51.114;13.906;2023-04-01T19:56:24;10.30;99.90
33368;DHT22;19724;51.114;13.906;2023-04-01T20:04:54;10.20;99.90
33368;DHT22;19724;51.114;13.906;2023-04-01T20:07:30;10.20;99.90
33368;DHT22;19724;51.114;13.906;2023-04-01T20:10:14;10.20;99.90
33368;DHT22;19724;51.114;13.906;2023-04-01T20:15:35;10.10;99.90
33368;DHT22;19724;51.114;13.906;2023-04-01T20:20:39;10.10;99.90
33368;DHT22;19724;51.114;13.906;2023-04-01T20:23:19;10.10;99.90
33368;DHT22;19724;51.114;13.906;2023-04-01T20:25:58;10.10;99.90
33368;DHT22;19724;51.114;13.906;2023-04-01T20:28:42;10.10;99.90
33368;DHT22;19724;51.114;13.906;2023-04-01T20:31:18;10.10;99.90
33368;DHT22;19724;51.114;13.906;2023-04-01T20:34:08;10.10;99.90
33368;DHT22;19724;51.114;13.906;2023-04-01T20:36:45;10.00;99.90
33368;DHT22;19724;51.114;13.906;2023-04-01T20:48:25;9.90;99.90
33368;DHT22;19724;51.114;13.906;2023-04-01T20:50:59;9.90;99.90
33368;DHT22;19724;51.114;13.906;2023-04-01T20:56:40;9.90;99.90
33368;DHT22;19724;51.114;13.906;2023-04-01T21:00:17;9.90;99.90
33368;DHT22;19724;51.114;13.906;2023-04-01T21:02:48;9.90;99.90
33368;DHT22;19724;51.114;13.906;2023-04-01T21:08:13;9.80;99.90
33368;DHT22;19724;51.114;13.906;2023-04-01T21:11:01;9.80;99.90
33368;DHT22;19724;51.114;13.906;2023-04-01T21:18:44;9.90;99.90
33368;DHT22;19724;51.114;13.906;2023-04-01T21:32:41;9.80;99.90
33368;DHT22;19724;51.114;13.906;2023-04-01T21:35:26;9.80;99.90
33368;DHT22;19724;51.114;13.906;2023-04-01T22:01:14;9.40;99.90
33368;DHT22;19724;51.114;13.906;2023-04-01T22:04:18;9.40;99.90
33368;DHT22;19724;51.114;13.906;2023-04-01T22:09:41;9.40;99.90
33368;DHT22;19724;51.114;13.906;2023-04-01T22:12:33;9.30;99.90
33368;DHT22;19724;51.114;13.906;2023-04-01T22:15:40;9.30;99.90
33368;DHT22;19724;51.114;13.906;2023-04-01T22:18:19;9.30;99.90
33368;DHT22;19724;51.114;13.906;2023-04-01T22:21:17;9.20;99.90
33368;DHT22;19724;51.114;13.906;2023-04-01T22:24:10;9.20;99.90
33368;DHT22;19724;51.114;13.906;2023-04-01T22:26:50;9.10;99.90
33368;DHT22;19724;51.114;13.906;2023-04-01T22:29:25;9.10;99.90
33368;DHT22;19724;51.114;13.906;2023-04-01T22:32:08;9.10;99.90
33368;DHT22;19724;51.114;13.906;2023-04-01T22:37:24;8.90;99.90
33368;DHT22;19724;51.114;13.906;2023-04-01T22:40:16;8.90;99.90
33368;DHT22;19724;51.114;13.906;2023-04-01T22:42:56;8.80;99.90
33368;DHT22;19724;51.114;13.906;2023-04-01T22:51:29;8.80;99.90
33368;DHT22;19724;51.114;13.906;2023-04-01T22:54:07;8.80;99.90
33368;DHT22;19724;51.114;13.906;2023-04-01T22:56:41;8.70;99.90
33368;DHT22;19724;51.114;13.906;2023-04-01T23:02:03;8.70;99.90
33368;DHT22;19724;51.114;13.906;2023-04-01T23:04:35;8.60;99.90
33368;DHT22;19724;51.114;13.906;2023-04-01T23:07:14;8.60;99.90
33368;DHT22;19724;51.114;13.906;2023-04-01T23:09:45;8.60;99.90
33368;DHT22;19724;51.114;13.906;2023-04-01T23:12:15;8.60;99.90
33368;DHT22;19724;51.114;13.906;2023-04-01T23:14:56;8.60;99.90
33368;DHT22;19724;51.114;13.906;2023-04-01T23:17:31;8.60;99.90
33368;DHT22;19724;51.114;13.906;2023-04-01T23:20:18;8.60;99.90
33368;DHT22;19724;51.114;13.906;2023-04-01T23:23:11;8.50;99.90
33368;DHT22;19724;51.114;13.906;2023-04-01T23:26:00;8.50;99.90
33368;DHT22;19724;51.114;13.906;2023-04-01T23:28:48;8.40;99.90
33368;DHT22;19724;51.114;13.906;2023-04-01T23:31:24;8.30;99.90
33368;DHT22;19724;51.114;13.906;2023-04-01T23:33:59;8.30;99.90
33368;DHT22;19724;51.114;13.906;2023-04-01T23:36:25;8.30;99.90
33368;DHT22;19724;51.114;13.906;2023-04-01T23:38:52;8.30;99.90
33368;DHT22;19724;51.114;13.906;2023-04-01T23:41:27;8.20;99.90
33368;DHT22;19724;51.114;13.906;2023-04-01T23:44:05;8.20;99.90
33368;DHT22;19724;51.114;13.906;2023-04-01T23:46:33;8.10;99.90
33368;DHT22;19724;51.114;13.906;2023-04-01T23:49:01;8.20;99.90
33368;DHT22;19724;51.114;13.906;2023-04-01T23:51:35;8.10;99.90
33368;DHT22;19724;51.114;13.906;2023-04-01T23:54:17;8.10;99.90
33368;DHT22;19724;51.114;13.906;2023-04-01T23:56:53;8.10;99.90
33368;DHT22;19724;51.114;13.906;2023-04-01T23:59:33;8.10;99.90
